Etusivu
METAR-TAF:

METAR-TAF

Lentoasemat :

Forest City, Iowa, Yhdysvallat

Leveyspiiri: 43-14-05N, Pituuspiiri: 093-37-27W, korkeus merenpinnasta: 375 m

Tämänhetkinen sää

Tämä raportti tehtiin 17 minuuttia sitten, kello 10.35 UTC
Tuuli 11 kn luoteesta puuskistuen 16 kn:hen
Lämpötila 5°C
Kosteus 70%
Ilmanpaine 1016 hPa
Näkyvyys: 16.1 km
selkeää

METAR: KFXY 261035Z AUTO 32011G16KT 10SM CLR 05/00 A3001 RMK AO2

Aika: 05:52 (10:52 UTC)


TAF: puuttuu

Säähavainnot ja -ennusteet yli 4000 lentoasemalta (METAR- ja TAF-raportit).

Käytössä olevat sääasemat on merkitty karttaan keltaisilla ja punaisilla pisteillä.

Aseta hiiri pisteen päälle nähdäksesi sääaseman nimen.

Klikkaa sitten nähdäksesi säähavainnot ja -ennusteet.

Kartan vaihtaminen: klikkaa mustalla rastilla varustettuja vihreitä pisteitä, niin voit zoomata sisään; viivalla varustettua vihreää pistettä, niin voit zoomata ulos tai vihreitä nuolia, niin pääset viereisille kartoille.


METAR-TAF: